Time;durP1;ratioP1;P1;durP2;ratioP2;P2;SDS_P1;SDS_P2;PMS_P1;PMS_P2;Temp;Humidity;BMP_temperature;BMP_pressure;BME280_temperature;BME280_humidity;BME280_pressure;Samples;Min_cycle;Max_cycle;Signal;HPM_P1;HPM_P2
2021/05/19 00:00:44;;;;;;;;;;;10.40;99.90;;;7.53;92.23;95552.94;10312068;28;2101;-84
2021/05/19 00:05:46;;;;;;;;;;;8.70;99.90;;;7.56;90.75;95559.63;10301806;28;2031;-85
2021/05/19 00:10:49;;;;;;;;;;;8.70;99.90;;;7.58;91.82;95555.63;10304442;28;1924;-86
2021/05/19 00:15:52;;;;;;;;;;;8.80;99.90;;;7.60;90.74;95552.69;10300669;28;2048;-83
2021/05/19 00:20:55;;;;;;;;;;;10.00;99.90;;;7.63;89.59;95548.69;10310453;28;2085;-84
2021/05/19 00:25:58;;;;;;;;;;;8.80;99.90;;;7.67;90.60;95558.59;10297850;28;1976;-86
2021/05/19 00:31:03;;;;;;;;;;;9.60;99.90;;;7.72;90.14;95555.97;10310462;28;2167;-84
2021/05/19 00:36:05;;;;;;;;;;;8.80;99.90;;;7.78;90.81;95549.56;10307869;28;2191;-87
2021/05/19 00:41:08;;;;;;;;;;;10.10;99.90;;;7.77;89.39;95557.88;10301683;28;1967;-85
2021/05/19 00:46:10;;;;;;;;;;;8.90;99.90;;;7.76;89.02;95561.59;10290891;28;2076;-85
2021/05/19 00:51:12;;;;;;;;;;;9.80;99.90;;;7.72;88.69;95557.84;10292132;28;2059;-85
2021/05/19 00:56:15;;;;;;;;;;;8.80;99.90;;;7.70;88.48;95559.94;10293788;28;1898;-86
2021/05/19 01:01:18;;;;;;;;;;;9.20;99.90;;;7.67;88.51;95552.44;10291936;28;2106;-84
2021/05/19 01:06:24;;;;;;;;;;;10.20;99.90;;;7.67;87.72;95568.50;10314468;28;2104;-84
2021/05/19 01:11:27;;;;;;;;;;;9.10;99.90;;;7.69;88.01;95566.38;10280938;28;2201;-83
2021/05/19 01:16:31;;;;;;;;;;;8.80;99.90;;;7.72;86.98;95560.50;10337375;28;2186;-85
2021/05/19 01:21:33;;;;;;;;;;;10.20;99.90;;;7.73;87.29;95570.16;10301162;28;2129;-85
2021/05/19 01:26:36;;;;;;;;;;;8.80;99.90;;;7.71;86.40;95569.59;10307623;28;2107;-85
2021/05/19 01:31:39;;;;;;;;;;;9.30;99.90;;;7.71;86.68;95561.59;10310098;28;2095;-85
2021/05/19 01:36:42;;;;;;;;;;;8.80;99.90;;;7.67;86.55;95563.97;10288392;28;2080;-84
2021/05/19 01:41:46;;;;;;;;;;;9.60;99.90;;;7.73;86.53;95562.13;10293079;28;2162;-84
2021/05/19 01:46:49;;;;;;;;;;;10.20;99.90;;;7.69;86.17;95572.53;10294048;28;2025;-85
2021/05/19 01:51:52;;;;;;;;;;;8.80;99.90;;;7.68;85.68;95565.56;10310046;28;2237;-85
2021/05/19 01:56:55;;;;;;;;;;;10.30;99.90;;;7.65;85.55;95570.66;10304916;28;2230;-84
2021/05/19 02:01:58;;;;;;;;;;;8.80;99.90;;;7.61;86.31;95575.69;10293730;28;2413;-85
2021/05/19 02:07:00;;;;;;;;;;;10.30;99.90;;;7.57;85.82;95579.94;10279551;28;2535;-83
2021/05/19 02:12:03;;;;;;;;;;;8.70;99.90;;;7.57;85.93;95583.44;10274855;28;2175;-84
2021/05/19 02:17:06;;;;;;;;;;;8.70;99.90;;;7.58;85.39;95579.72;10288275;28;2183;-84
2021/05/19 02:22:09;;;;;;;;;;;9.50;99.90;;;7.63;85.05;95583.44;10313199;28;2232;-84
2021/05/19 02:27:12;;;;;;;;;;;10.20;99.90;;;7.62;84.97;95581.84;10295286;28;2029;-84
2021/05/19 02:32:15;;;;;;;;;;;9.20;99.90;;;7.57;85.10;95582.63;10296795;28;2093;-84
2021/05/19 02:37:18;;;;;;;;;;;8.70;99.90;;;7.58;85.54;95585.06;10296150;28;2041;-84
2021/05/19 02:42:20;;;;;;;;;;;9.10;99.90;;;7.58;85.48;95577.03;10296935;28;1421;-85
2021/05/19 02:47:23;;;;;;;;;;;9.50;99.90;;;7.53;85.55;95593.03;10326355;28;2023;-84
2021/05/19 02:52:26;;;;;;;;;;;8.70;99.90;;;7.52;85.72;95580.75;10302788;28;2233;-84
2021/05/19 02:57:28;;;;;;;;;;;10.30;99.90;;;7.46;85.63;95595.16;10318368;28;1942;-85
2021/05/19 03:02:31;;;;;;;;;;;8.90;99.90;;;7.42;85.84;95594.03;10301987;28;2161;-85
2021/05/19 03:07:34;;;;;;;;;;;9.30;99.90;;;7.37;86.43;95591.31;10312804;28;2132;-85
2021/05/19 03:12:37;;;;;;;;;;;9.90;99.90;;;7.46;86.73;95589.78;10316498;28;2140;-85
2021/05/19 03:17:40;;;;;;;;;;;9.60;99.90;;;7.47;85.80;95596.75;10320977;28;1934;-84
2021/05/19 03:22:42;;;;;;;;;;;9.00;99.90;;;7.51;86.48;95599.72;10299386;28;2364;-84
2021/05/19 03:27:45;;;;;;;;;;;8.60;99.90;;;7.55;85.97;95604.28;10313594;28;2012;-84
2021/05/19 03:32:48;;;;;;;;;;;9.00;99.90;;;7.61;85.76;95602.44;10314769;28;2221;-87
2021/05/19 03:37:50;;;;;;;;;;;8.90;99.90;;;7.66;85.28;95599.00;10297970;28;2186;-83
2021/05/19 03:42:53;;;;;;;;;;;8.70;99.90;;;7.69;85.23;95601.16;10306313;28;2391;-83
2021/05/19 03:47:56;;;;;;;;;;;8.80;99.90;;;7.78;84.79;95616.47;10292811;28;2239;-82
2021/05/19 03:52:58;;;;;;;;;;;8.80;99.90;;;7.80;84.88;95624.22;10288434;28;2467;-84
2021/05/19 03:58:01;;;;;;;;;;;9.00;99.90;;;7.78;84.46;95615.66;10288835;28;2212;-85
2021/05/19 04:03:04;;;;;;;;;;;10.60;99.90;;;7.80;84.77;95626.91;10292183;28;1459;-84
2021/05/19 04:08:07;;;;;;;;;;;8.80;99.90;;;7.82;84.64;95622.09;10288943;28;1878;-86
2021/05/19 04:13:11;;;;;;;;;;;10.10;99.90;;;7.82;83.89;95638.97;10306786;28;1892;-87
2021/05/19 04:18:34;;;;;;;;;;;8.90;99.90;;;7.78;86.10;95637.88;10308142;28;2131;-85
2021/05/19 04:23:59;;;;;;;;;;;10.30;99.90;;;7.67;87.28;95646.09;10320217;28;2101;-86
2021/05/19 04:29:22;;;;;;;;;;;8.70;99.90;;;7.50;92.45;95649.72;10304651;28;1863;-84
2021/05/19 04:34:44;;;;;;;;;;;10.10;99.90;;;7.34;93.72;95660.56;10299501;28;2336;-84
2021/05/19 04:40:08;;;;;;;;;;;9.10;99.90;;;7.31;94.41;95670.69;10298672;28;2081;-85
2021/05/19 04:45:31;;;;;;;;;;;8.40;99.90;;;7.31;95.43;95667.22;10301435;28;2252;-85
2021/05/19 04:50:54;;;;;;;;;;;10.10;99.90;;;7.36;94.85;95675.28;10287278;28;2202;-83
2021/05/19 04:56:17;;;;;;;;;;;9.00;99.90;;;7.42;94.66;95671.59;10303152;28;2160;-83
2021/05/19 05:01:40;;;;;;;;;;;10.10;99.90;;;7.55;94.71;95684.53;10314672;28;2050;-84
2021/05/19 05:07:02;;;;;;;;;;;8.50;99.90;;;7.55;93.06;95684.53;10311684;28;1916;-84
2021/05/19 05:12:11;;;;;;;;;;;10.10;99.90;;;7.65;93.28;95683.00;10303928;28;2090;-84
2021/05/19 05:17:34;;;;;;;;;;;8.70;99.90;;;7.59;93.43;95680.28;10307907;28;2104;-85
2021/05/19 05:22:56;;;;;;;;;;;10.40;99.90;;;7.68;95.12;95683.28;10322172;28;2160;-84
2021/05/19 05:28:19;;;;;;;;;;;8.70;99.90;;;7.70;94.81;95691.03;10326957;28;2197;-85
2021/05/19 05:33:42;;;;;;;;;;;8.70;99.90;;;7.77;94.53;95694.34;10315591;28;2055;-85
2021/05/19 05:39:04;;;;;;;;;;;8.70;99.90;;;7.87;94.82;95691.69;10322895;28;2216;-83
2021/05/19 05:44:27;;;;;;;;;;;10.20;99.90;;;8.01;95.11;95692.84;10306096;28;2051;-84
2021/05/19 05:49:49;;;;;;;;;;;8.90;99.90;;;8.15;93.60;95689.75;10294925;28;2142;-84
2021/05/19 05:55:11;;;;;;;;;;;10.20;99.90;;;8.44;92.14;95696.31;10293051;28;2180;-83
2021/05/19 06:00:36;;;;;;;;;;;9.20;99.90;;;8.70;91.46;95693.72;10287216;28;2103;-82
2021/05/19 06:05:39;;;;;;;;;;;9.90;99.90;;;8.63;89.01;95700.13;10299203;28;2336;-84
2021/05/19 06:10:41;;;;;;;;;;;10.00;99.90;;;8.97;88.93;95702.41;10293634;28;2037;-86
2021/05/19 06:15:44;;;;;;;;;;;9.70;99.90;;;8.82;88.38;95713.88;10303549;28;2156;-84
2021/05/19 06:20:47;;;;;;;;;;;10.20;99.90;;;9.05;86.27;95701.88;10308179;28;1979;-84
2021/05/19 06:25:49;;;;;;;;;;;9.80;99.90;;;9.18;85.67;95698.69;10289845;28;1937;-85
2021/05/19 06:30:55;;;;;;;;;;;10.90;99.90;;;9.55;85.15;95699.50;10295601;28;2062;-86
2021/05/19 06:35:58;;;;;;;;;;;10.20;99.90;;;9.71;82.59;95696.53;10293970;28;1990;-87
2021/05/19 06:41:01;;;;;;;;;;;10.40;99.90;;;9.74;82.80;95704.06;10290065;28;1806;-80
2021/05/19 06:46:05;;;;;;;;;;;10.50;99.90;;;10.32;79.92;95702.91;10288282;28;1929;-83
2021/05/19 06:51:07;;;;;;;;;;;10.80;99.90;;;10.35;80.17;95700.47;10286702;28;2065;-82
2021/05/19 06:56:11;;;;;;;;;;;11.00;99.90;;;10.55;76.87;95702.28;10302012;28;1319;-82
2021/05/19 07:01:16;;;;;;;;;;;11.30;99.90;;;10.46;79.08;95710.13;10296504;28;2007;-83
2021/05/19 07:06:18;;;;;;;;;;;11.20;99.90;;;10.53;79.64;95709.81;10288408;28;2105;-84
2021/05/19 07:11:21;;;;;;;;;;;11.20;99.90;;;10.19;80.65;95713.13;10307613;28;2281;-83
2021/05/19 07:16:25;;;;;;;;;;;11.10;99.90;;;10.52;78.54;95709.03;10298702;28;2088;-81
2021/05/19 07:21:27;;;;;;;;;;;11.10;99.90;;;10.50;79.28;95708.50;10315854;28;1983;-84
2021/05/19 07:26:30;;;;;;;;;;;11.30;99.90;;;10.16;78.83;95710.16;10321901;28;1706;-81
2021/05/19 07:31:33;;;;;;;;;;;11.20;99.90;;;10.58;77.63;95706.31;10302855;28;2050;-82
2021/05/19 07:36:35;;;;;;;;;;;11.20;99.90;;;10.90;76.26;95711.28;10283906;28;1674;-83
2021/05/19 07:41:38;;;;;;;;;;;11.40;99.90;;;10.25;76.17;95706.69;10293497;28;1971;-82
2021/05/19 07:46:40;;;;;;;;;;;11.30;99.90;;;10.39;75.38;95706.91;10283099;28;1977;-82
2021/05/19 07:51:42;;;;;;;;;;;11.30;99.90;;;10.62;72.94;95705.47;10311700;28;1964;-83
2021/05/19 07:56:51;;;;;;;;;;;11.40;99.90;;;10.68;73.36;95707.06;10294206;28;1579;-83
2021/05/19 08:02:02;;;;;;;;;;;11.50;99.90;;;10.48;75.42;95712.53;10307688;28;2085;-84
2021/05/19 08:07:03;;;;;;;;;;;12.60;99.90;;;10.32;74.92;95708.28;10292165;28;2080;-84
2021/05/19 08:12:04;;;;;;;;;;;11.20;99.90;;;11.84;70.10;95702.06;10293850;28;1990;-87
2021/05/19 08:17:06;;;;;;;;;;;11.70;99.90;;;12.10;66.95;95689.16;10277968;28;2020;-82
2021/05/19 08:22:11;;;;;;;;;;;12.40;99.90;;;11.94;70.16;95694.94;10280558;28;2070;-84
2021/05/19 08:27:14;;;;;;;;;;;12.90;99.90;;;9.92;74.94;95699.19;10278772;28;2002;-84
2021/05/19 08:32:17;;;;;;;;;;;11.70;99.90;;;9.77;77.15;95707.28;10282346;28;2072;-83
2021/05/19 08:37:20;;;;;;;;;;;11.00;99.90;;;9.61;78.14;95711.88;10301902;28;1729;-83
2021/05/19 08:42:23;;;;;;;;;;;10.60;99.90;;;10.16;77.47;95713.66;10285129;28;1944;-85
2021/05/19 08:47:26;;;;;;;;;;;10.80;99.90;;;11.11;74.20;95704.72;10284670;28;1829;-80
2021/05/19 08:52:29;;;;;;;;;;;11.30;99.90;;;12.88;65.18;95712.25;10291191;28;2035;-85
2021/05/19 08:57:36;;;;;;;;;;;12.60;99.90;;;11.11;77.66;95699.31;10289767;28;1889;-83
2021/05/19 09:02:39;;;;;;;;;;;12.30;99.90;;;10.47;78.32;95700.97;10302201;28;2048;-84
2021/05/19 09:07:41;;;;;;;;;;;11.70;99.90;;;11.00;75.99;95708.53;10312821;28;1631;-82
2021/05/19 09:12:44;;;;;;;;;;;11.70;99.90;;;11.22;76.19;95710.84;10291787;28;1914;-83
2021/05/19 09:17:47;;;;;;;;;;;11.90;99.90;;;11.31;75.32;95709.94;10315323;28;1790;-82
2021/05/19 09:22:50;;;;;;;;;;;12.10;99.90;;;11.53;70.53;95711.44;10305677;28;2023;-82
2021/05/19 09:27:53;;;;;;;;;;;12.40;99.90;;;11.79;68.39;95699.38;10295374;28;2324;-82
2021/05/19 09:32:56;;;;;;;;;;;12.60;99.90;;;12.32;62.99;95696.72;10291563;28;1918;-82
2021/05/19 09:37:58;;;;;;;;;;;12.90;99.90;;;12.40;63.44;95698.78;10290026;28;1409;-81
2021/05/19 09:43:02;;;;;;;;;;;13.20;99.90;;;12.63;63.93;95696.38;10281280;28;2037;-79
2021/05/19 09:48:05;;;;;;;;;;;13.10;99.90;;;13.86;58.99;95696.25;10284605;28;2159;-83
2021/05/19 09:53:07;;;;;;;;;;;14.10;99.90;;;11.53;67.11;95722.19;10297780;28;2293;-81
2021/05/19 09:58:10;;;;;;;;;;;13.60;99.90;;;10.99;71.58;95717.69;10311294;28;1725;-82
2021/05/19 10:03:16;;;;;;;;;;;12.50;99.90;;;11.38;71.21;95717.72;10292085;28;2048;-82
2021/05/19 10:08:19;;;;;;;;;;;12.10;99.90;;;12.03;66.41;95714.81;10302680;28;2390;-82
2021/05/19 10:13:23;;;;;;;;;;;12.50;99.90;;;12.45;64.75;95712.22;10306910;28;2252;-84
2021/05/19 10:18:25;;;;;;;;;;;13.10;99.90;;;12.67;64.72;95710.91;10315007;28;1928;-83
2021/05/19 10:23:32;;;;;;;;;;;13.40;99.90;;;12.90;61.16;95710.06;10307341;28;2349;-86
2021/05/19 10:28:35;;;;;;;;;;;13.70;99.90;;;13.34;59.72;95708.16;10293706;28;2050;-85
2021/05/19 10:33:38;;;;;;;;;;;13.90;99.90;;;12.70;62.42;95702.22;10302975;28;2131;-83
2021/05/19 10:38:40;;;;;;;;;;;14.00;99.90;;;11.24;67.74;95731.00;10301250;28;1869;-83
2021/05/19 10:43:43;;;;;;;;;;;12.90;99.90;;;10.31;78.64;95714.72;10296139;28;2001;-82
2021/05/19 10:48:45;;;;;;;;;;;11.90;99.90;;;10.08;79.20;95710.72;10281982;28;2017;-82
2021/05/19 10:59:09;;;;;;;;;;;11.20;99.90;;;11.39;78.61;95708.59;10296712;28;1916;-84
2021/05/19 11:04:11;;;;;;;;;;;11.60;99.90;;;12.08;74.06;95706.66;10285137;28;2077;-85
2021/05/19 11:09:14;;;;;;;;;;;12.30;99.90;;;12.13;71.53;95717.41;10276319;28;2041;-83
2021/05/19 11:14:26;;;;;;;;;;;12.60;99.90;;;12.69;68.61;95706.00;10304889;28;2110;-79
2021/05/19 11:19:29;;;;;;;;;;;13.00;99.90;;;12.96;70.46;95700.00;10296536;28;2286;-83
2021/05/19 11:24:34;;;;;;;;;;;13.50;99.90;;;13.87;64.43;95692.47;10286846;28;2084;-81
2021/05/19 11:29:37;;;;;;;;;;;14.10;99.90;;;14.45;64.57;95691.16;10286460;28;2179;-83
2021/05/19 11:34:40;;;;;;;;;;;15.00;99.90;;;14.44;62.17;95668.72;10281893;28;1918;-85
2021/05/19 11:39:45;;;;;;;;;;;15.30;99.90;;;14.40;63.81;95672.31;10305503;28;1920;-81
2021/05/19 11:44:59;;;;;;;;;;;15.30;99.90;;;14.21;61.18;95669.72;10277245;28;2007;-80
2021/05/19 11:50:02;;;;;;;;;;;15.00;99.90;;;14.93;58.83;95669.09;10276972;28;1696;-83
2021/05/19 11:55:05;;;;;;;;;;;15.30;99.90;;;15.37;56.04;95668.38;10296597;28;2053;-83
2021/05/19 12:00:10;;;;;;;;;;;15.80;99.90;;;14.24;58.76;95679.91;10294215;28;2325;-85
2021/05/19 12:05:13;;;;;;;;;;;15.40;99.90;;;12.85;76.89;95691.25;10281343;28;1924;-84
2021/05/19 12:10:17;;;;;;;;;;;14.60;99.90;;;12.13;76.76;95685.06;10287139;28;2030;-85
2021/05/19 12:15:20;;;;;;;;;;;13.60;99.90;;;12.56;84.40;95679.75;10276317;28;2207;-83
2021/05/19 12:20:23;;;;;;;;;;;13.30;99.90;;;12.50;72.07;95675.50;10287000;28;2046;-83
2021/05/19 12:25:26;;;;;;;;;;;13.30;99.90;;;12.62;80.56;95684.00;10311801;28;1885;-85
2021/05/19 12:30:29;;;;;;;;;;;13.30;99.90;;;12.33;72.53;95684.03;10301641;28;1985;-82
2021/05/19 12:35:44;;;;;;;;;;;;;;;;;;;;;
2021/05/19 12:41:13;;;;;;;;;;;13.00;99.90;;;10.81;80.62;95695.75;10291829;28;2124;-83
2021/05/19 12:46:45;;;;;;;;;;;12.30;99.90;;;9.85;80.51;95737.06;10276037;28;2145;-82
2021/05/19 12:51:50;;;;;;;;;;;11.40;99.90;;;9.05;86.47;95738.63;10298728;28;2170;-84
2021/05/19 12:56:57;;;;;;;;;;;10.60;99.90;;;8.79;85.47;95748.44;10286317;28;1718;-81
2021/05/19 13:08:25;;;;;;;;;;;;;;;;;;;;;
2021/05/19 13:31:58;;;;;;;;;;;11.70;99.90;;;13.03;73.13;95721.22;10130131;29;1896;-83
2021/05/19 13:38:02;;;;;;;;;;;13.10;99.90;;;13.80;68.66;95724.44;10153860;29;2015;-81
2021/05/19 13:43:04;;;;;;;;;;;14.30;99.90;;;14.35;64.76;95721.88;10273153;28;2106;-84
2021/05/19 13:48:10;;;;;;;;;;;14.80;99.90;;;13.81;65.75;95739.59;10303972;28;2163;-82
2021/05/19 13:53:16;;;;;;;;;;;14.70;99.90;;;13.16;65.23;95734.00;10307588;28;2066;-84
2021/05/19 13:58:19;;;;;;;;;;;14.10;99.90;;;13.33;63.60;95720.84;10296358;28;1983;-84
2021/05/19 14:03:27;;;;;;;;;;;14.10;99.90;;;13.04;62.22;95722.81;10290617;28;1869;-85
2021/05/19 14:08:33;;;;;;;;;;;14.00;99.90;;;13.33;64.62;95720.84;10301786;28;1950;-84
2021/05/19 14:13:40;;;;;;;;;;;14.20;99.90;;;13.39;61.95;95708.09;10296675;28;2568;-84
2021/05/19 14:29:41;;;;;;;;;;;14.10;99.90;;;13.73;58.95;95719.41;10541933;28;2084;-86
2021/05/19 14:34:47;;;;;;;;;;;14.50;99.90;;;13.36;58.51;95709.47;10553947;28;2163;-84
2021/05/19 15:01:12;;;;;;;;;;;14.80;99.90;;;13.97;61.14;95713.91;10536704;28;2046;-85
2021/05/19 15:06:15;;;;;;;;;;;15.10;99.90;;;13.70;57.23;95714.63;10532113;28;2029;-86
2021/05/19 15:11:18;;;;;;;;;;;15.00;99.90;;;14.06;54.70;95711.34;10535029;28;1987;-87
2021/05/19 15:16:21;;;;;;;;;;;15.00;99.90;;;14.20;55.70;95706.75;10540845;28;1798;-87
2021/05/19 15:21:24;;;;;;;;;;;15.20;99.90;;;13.77;57.89;95708.84;10564630;28;2105;-88
2021/05/19 15:26:27;;;;;;;;;;;15.00;99.90;;;14.31;53.75;95697.38;10572706;28;1938;-89
2021/05/19 15:31:31;;;;;;;;;;;15.00;99.90;;;14.65;50.31;95711.63;10577992;28;2042;-86
2021/05/19 15:36:34;;;;;;;;;;;15.50;99.90;;;14.43;52.84;95706.88;10538612;28;2218;-87
2021/05/19 15:41:38;;;;;;;;;;;15.50;99.90;;;13.89;54.30;95717.28;10540286;28;2060;-86
2021/05/19 15:46:41;;;;;;;;;;;15.10;99.90;;;13.72;54.31;95722.41;10528129;28;1904;-84
2021/05/19 15:51:43;;;;;;;;;;;14.80;99.90;;;13.35;55.28;95726.75;10538103;28;2209;-87
2021/05/19 15:56:46;;;;;;;;;;;14.60;99.90;;;12.76;57.15;95736.13;10552633;28;1924;-87
2021/05/19 16:01:52;;;;;;;;;;;14.20;99.90;;;12.37;57.83;95736.31;10547837;28;2027;-83
2021/05/19 16:06:57;;;;;;;;;;;13.70;99.90;;;11.55;60.63;95788.13;10550156;28;2164;-84
2021/05/19 16:11:59;;;;;;;;;;;13.20;99.90;;;9.65;68.33;95806.84;10541387;28;1845;-84
2021/05/19 16:17:05;;;;;;;;;;;11.90;99.90;;;7.77;82.73;95804.03;10548458;28;2000;-84
2021/05/19 16:22:15;;;;;;;;;;;;;;;7.46;89.14;95785.03;10559898;28;2096;-82
2021/05/19 16:27:21;;;;;;;;;;;8.80;99.90;;;7.52;91.82;95797.41;10564159;28;1653;-83
2021/05/19 16:38:20;;;;;;;;;;;8.70;99.90;;;7.85;94.72;95798.22;10537664;28;1794;-85
2021/05/19 16:43:27;;;;;;;;;;;8.80;99.90;;;8.12;97.58;95787.44;10535540;28;2083;-84
2021/05/19 16:48:54;;;;;;;;;;;10.00;99.90;;;8.23;94.43;95764.22;10528613;28;1954;-84
2021/05/19 16:53:58;;;;;;;;;;;9.20;99.90;;;8.66;97.57;95758.59;10530585;28;1609;-82
2021/05/19 16:59:03;;;;;;;;;;;10.30;99.90;;;8.93;94.19;95768.34;10529602;28;2165;-84
2021/05/19 17:09:28;;;;;;;;;;;10.70;99.90;;;9.30;89.88;95775.41;10548767;28;2366;-86
2021/05/19 17:14:31;;;;;;;;;;;10.10;99.90;;;9.46;88.26;95772.47;10518882;28;2423;-87
2021/05/19 17:19:34;;;;;;;;;;;10.30;99.90;;;9.54;86.46;95783.75;10534814;28;2340;-85
2021/05/19 17:24:38;;;;;;;;;;;10.30;99.90;;;9.51;86.07;95790.47;10539050;28;2490;-86
2021/05/19 17:29:41;;;;;;;;;;;10.50;99.90;;;9.52;85.79;95781.34;10539458;28;2026;-85
2021/05/19 17:34:48;;;;;;;;;;;10.50;99.90;;;9.66;86.95;95787.78;10524288;28;2064;-85
2021/05/19 17:39:52;;;;;;;;;;;10.60;99.90;;;9.58;85.20;95796.38;10541582;28;2309;-86
2021/05/19 17:44:55;;;;;;;;;;;10.60;99.90;;;9.39;86.58;95803.31;10530663;28;2113;-87
2021/05/19 17:49:58;;;;;;;;;;;10.50;99.90;;;9.37;85.73;95818.88;10527367;28;2058;-84
2021/05/19 17:55:02;;;;;;;;;;;10.40;99.90;;;9.35;86.86;95824.53;10522669;28;2998;-87
2021/05/19 18:00:06;;;;;;;;;;;10.40;99.90;;;9.35;87.58;95829.06;10534875;28;2066;-85
2021/05/19 18:05:10;;;;;;;;;;;10.40;99.90;;;9.30;86.72;95824.50;10562366;28;2207;-88
2021/05/19 18:10:14;;;;;;;;;;;10.40;99.90;;;9.23;87.38;95815.09;10551455;28;2029;-86
2021/05/19 18:15:18;;;;;;;;;;;10.30;99.90;;;9.17;90.16;95817.75;10542461;28;2281;-88
2021/05/19 18:20:21;;;;;;;;;;;10.30;99.90;;;9.00;89.89;95816.34;10546741;28;1891;-86
2021/05/19 18:25:24;;;;;;;;;;;10.20;99.90;;;8.96;91.25;95820.59;10536485;28;2046;-88
2021/05/19 18:30:30;;;;;;;;;;;10.10;99.90;;;8.93;88.82;95821.94;10527009;28;2070;-87
2021/05/19 18:35:36;;;;;;;;;;;10.10;99.90;;;8.87;90.67;95844.44;10526456;28;2050;-86
2021/05/19 18:40:39;;;;;;;;;;;10.00;99.90;;;8.78;88.02;95840.63;10528121;28;1957;-85
2021/05/19 18:45:46;;;;;;;;;;;10.00;99.90;;;8.65;87.94;95849.94;10535909;28;2036;-85
2021/05/19 18:50:50;;;;;;;;;;;9.90;99.90;;;8.54;88.83;95851.75;10525142;28;1920;-87
2021/05/19 18:55:53;;;;;;;;;;;9.80;99.90;;;8.39;89.97;95854.31;10533913;28;1625;-86
2021/05/19 19:00:56;;;;;;;;;;;10.30;99.90;;;8.13;88.44;95875.53;10510496;28;2109;-86
2021/05/19 19:06:01;;;;;;;;;;;9.50;99.90;;;7.88;86.48;95888.69;10529320;28;2085;-87
2021/05/19 19:11:04;;;;;;;;;;;9.20;99.90;;;7.68;87.62;95900.00;10543126;28;2010;-86
2021/05/19 19:16:10;;;;;;;;;;;9.60;99.90;;;7.48;87.88;95902.47;10537968;28;1732;-85
2021/05/19 19:21:15;;;;;;;;;;;9.80;99.90;;;7.26;87.37;95900.63;10538489;28;2088;-87
2021/05/19 19:26:19;;;;;;;;;;;9.60;99.90;;;7.10;88.60;95904.16;10544007;28;2011;-87
2021/05/19 19:31:30;;;;;;;;;;;9.80;99.90;;;6.96;88.90;95911.72;10546913;28;1717;-87
2021/05/19 19:36:35;;;;;;;;;;;8.70;99.90;;;6.99;88.90;95900.53;10534279;28;1271;-87
2021/05/19 19:41:41;;;;;;;;;;;8.30;99.90;;;6.80;88.81;95907.22;10546010;28;1985;-86
2021/05/19 19:46:45;;;;;;;;;;;9.70;99.90;;;6.81;89.19;95902.69;10543800;28;2035;-88
2021/05/19 19:51:49;;;;;;;;;;;8.10;99.90;;;6.76;88.75;95912.25;10540778;28;1923;-84
2021/05/19 19:57:00;;;;;;;;;;;9.70;99.90;;;6.72;88.69;95911.13;10543257;28;2023;-87
2021/05/19 20:02:15;;;;;;;;;;;8.60;99.90;;;6.69;89.35;95913.50;10553513;28;2427;-86
2021/05/19 20:07:20;;;;;;;;;;;7.90;99.90;;;6.64;88.24;95921.44;10551460;28;1730;-87
2021/05/19 20:12:29;;;;;;;;;;;9.40;99.90;;;6.59;87.74;95927.50;10547024;28;1997;-87
2021/05/19 20:17:44;;;;;;;;;;;8.50;99.90;;;6.52;88.42;95932.19;10534388;28;1999;-85
2021/05/19 20:22:54;;;;;;;;;;;7.80;99.90;;;6.50;88.05;95935.13;10519828;28;1954;-87
2021/05/19 20:28:05;;;;;;;;;;;7.80;99.90;;;6.52;87.58;95942.06;10534191;28;1888;-87
2021/05/19 20:33:13;;;;;;;;;;;9.60;99.90;;;6.47;88.06;95940.13;10529171;28;2061;-87
2021/05/19 20:38:21;;;;;;;;;;;9.00;99.90;;;6.38;87.95;95937.06;10536894;28;2043;-88
2021/05/19 20:43:56;;;;;;;;;;;8.40;99.90;;;6.34;88.17;95935.91;10558021;28;1961;-89
2021/05/19 20:49:28;;;;;;;;;;;7.60;99.90;;;6.38;88.34;95938.94;10547293;28;2247;-89
2021/05/19 21:00:35;;;;;;;;;;;8.70;99.90;;;6.42;88.48;95932.84;10528984;28;2310;-91
2021/05/19 21:11:27;;;;;;;;;;;7.60;99.90;;;6.53;87.24;95951.69;10529747;28;2175;-87
2021/05/19 21:16:38;;;;;;;;;;;7.70;99.90;;;6.57;86.72;95950.97;10538801;28;1669;-87
2021/05/19 21:27:16;;;;;;;;;;;7.70;99.90;;;6.61;87.30;95967.31;10543057;28;1693;-88
2021/05/19 21:32:29;;;;;;;;;;;8.30;99.90;;;6.70;86.38;95963.19;10539795;28;1655;-88
2021/05/19 21:37:38;;;;;;;;;;;9.10;99.90;;;6.79;85.29;95975.06;10561988;28;1305;-87
2021/05/19 21:42:44;;;;;;;;;;;9.70;99.90;;;6.83;85.81;95973.53;10544578;28;1938;-88
2021/05/19 21:48:01;;;;;;;;;;;7.90;99.90;;;6.89;85.84;95983.25;10527536;28;1528;-87
2021/05/19 21:53:16;;;;;;;;;;;9.80;99.90;;;6.95;84.77;95979.59;10535180;28;1646;-86
2021/05/19 21:58:45;;;;;;;;;;;9.70;99.90;;;6.99;85.99;95986.06;10531863;28;1813;-88
2021/05/19 22:03:51;;;;;;;;;;;9.50;99.90;;;6.98;85.52;95989.78;10541328;28;1988;-85
2021/05/19 22:08:56;;;;;;;;;;;8.70;99.90;;;7.02;84.72;95998.13;10549830;28;1950;-89
2021/05/19 22:14:05;;;;;;;;;;;8.40;99.90;;;6.97;85.05;95998.88;10556167;28;2180;-88
2021/05/19 22:19:37;;;;;;;;;;;9.80;99.90;;;6.99;86.67;95998.63;10532840;28;1957;-87
2021/05/19 22:25:07;;;;;;;;;;;8.60;99.90;;;6.95;85.74;96009.00;10528960;28;1912;-86
2021/05/19 22:30:19;;;;;;;;;;;9.00;99.90;;;6.92;85.98;96020.16;10538337;28;2010;-87
2021/05/19 22:35:33;;;;;;;;;;;9.30;99.90;;;6.87;86.46;96019.28;10539020;28;1522;-87
2021/05/19 22:40:49;;;;;;;;;;;8.70;99.90;;;6.87;87.00;96020.09;10519380;28;2099;-88
2021/05/19 22:45:59;;;;;;;;;;;9.40;99.90;;;6.81;86.89;96010.41;10544615;28;2015;-86
2021/05/19 22:51:38;;;;;;;;;;;;;;;;;;;;;
2021/05/19 22:56:52;;;;;;;;;;;8.20;99.90;;;6.85;87.29;96016.84;10543913;28;1705;-88
2021/05/19 23:02:09;;;;;;;;;;;8.50;99.90;;;6.87;87.64;96003.25;10541170;28;2028;-87
2021/05/19 23:07:27;;;;;;;;;;;7.90;99.90;;;6.95;87.73;96006.31;10535400;28;1947;-88
2021/05/19 23:12:40;;;;;;;;;;;9.50;99.90;;;7.04;88.47;96015.53;10545306;28;1920;-89
2021/05/19 23:17:50;;;;;;;;;;;9.10;99.90;;;7.05;87.46;96017.16;10537097;28;2083;-89
2021/05/19 23:23:13;;;;;;;;;;;8.60;99.90;;;7.00;87.98;96026.97;10538756;28;1948;-88
2021/05/19 23:28:28;;;;;;;;;;;8.20;99.90;;;6.93;87.40;96028.97;10555110;28;1876;-87
2021/05/19 23:33:38;;;;;;;;;;;8.10;99.90;;;6.89;88.11;96031.34;10534612;28;2043;-87
2021/05/19 23:38:59;;;;;;;;;;;9.50;99.90;;;6.88;88.27;96029.75;10553425;28;2055;-89
2021/05/19 23:49:44;;;;;;;;;;;9.20;99.90;;;6.86;87.88;96029.16;10532004;28;2078;-87
2021/05/19 23:54:52;;;;;;;;;;;8.10;99.90;;;6.90;88.09;96029.50;10530106;28;2121;-87
